Time;durP1;ratioP1;P1;durP2;ratioP2;P2;SDS_P1;SDS_P2;PMS_P1;PMS_P2;Temp;Humidity;BMP_temperature;BMP_pressure;BME280_temperature;BME280_humidity;BME280_pressure;Samples;Min_cycle;Max_cycle;Signal;HPM_P1;HPM_P2
2023/02/26 00:01:10;;;;;;;3.15;1.60;;;;;;;-2.38;100.00;98328.13;4944135;28;20028;-73
2023/02/26 00:03:36;;;;;;;6.43;1.67;;;;;;;-2.44;100.00;98316.25;4991182;28;20171;-74
2023/02/26 00:06:01;;;;;;;5.13;1.50;;;;;;;-2.50;100.00;98314.13;4960249;28;20520;-74
2023/02/26 00:08:26;;;;;;;2.70;1.80;;;;;;;-2.54;100.00;98325.13;4960723;28;20035;-74
2023/02/26 00:10:53;;;;;;;7.88;1.65;;;;;;;-2.72;100.00;98319.63;4945848;28;20033;-73
2023/02/26 00:13:19;;;;;;;5.55;1.83;;;;;;;-2.84;100.00;98312.72;4939556;28;20035;-74
2023/02/26 00:15:45;;;;;;;6.07;1.85;;;;;;;-2.88;100.00;98326.22;4951643;28;20022;-74
2023/02/26 00:18:14;;;;;;;4.90;1.77;;;;;;;-2.76;100.00;98326.97;4944876;28;20106;-74
2023/02/26 00:20:42;;;;;;;5.72;2.03;;;;;;;-2.77;100.00;98340.34;4935996;28;20058;-74
2023/02/26 00:23:13;;;;;;;4.20;1.73;;;;;;;-2.92;100.00;98329.25;4940022;29;20085;-74
2023/02/26 00:25:38;;;;;;;4.78;2.03;;;;;;;-2.89;100.00;98339.56;4936217;28;20058;-74
2023/02/26 00:28:04;;;;;;;7.80;2.20;;;;;;;-3.00;100.00;98347.59;4938508;28;20059;-74
2023/02/26 00:30:29;;;;;;;7.43;2.05;;;;;;;-3.12;100.00;98342.34;4941213;28;20035;-73
2023/02/26 00:32:55;;;;;;;4.18;2.33;;;;;;;-3.15;100.00;98334.66;4950695;28;20031;-74
2023/02/26 00:35:21;;;;;;;8.25;2.30;;;;;;;-3.11;100.00;98345.84;4950186;28;20055;-74
2023/02/26 00:37:52;;;;;;;3.13;1.80;;;;;;;-3.22;100.00;98348.53;4937011;28;20035;-74
2023/02/26 00:40:26;;;;;;;6.28;1.75;;;;;;;-3.27;100.00;98351.56;4947656;28;20037;-74
2023/02/26 00:42:52;;;;;;;5.13;1.90;;;;;;;-3.30;100.00;98346.53;4950557;28;20023;-75
2023/02/26 00:45:18;;;;;;;3.75;1.90;;;;;;;-3.35;100.00;98354.84;4950564;28;20404;-74
2023/02/26 00:47:48;;;;;;;5.50;1.63;;;;;;;-3.40;100.00;98354.38;4949983;28;20029;-74
2023/02/26 00:50:24;;;;;;;4.88;1.80;;;;;;;-3.33;100.00;98362.63;4972422;28;20027;-74
2023/02/26 00:53:11;;;;;;;6.90;1.70;;;;;;;-3.39;100.00;98350.75;4954737;28;20395;-74
2023/02/26 00:55:37;;;;;;;7.15;1.88;;;;;;;-3.50;100.00;98345.53;4968468;23;20459;-72
2023/02/26 00:58:02;;;;;;;6.22;1.85;;;;;;;-3.43;100.00;98357.28;4961279;28;20407;-70
2023/02/26 01:00:27;;;;;;;3.95;1.98;;;;;;;-3.55;100.00;98353.00;4962515;28;20027;-70
2023/02/26 01:02:53;;;;;;;4.93;2.05;;;;;;;-3.61;100.00;98369.38;4954739;28;20019;-70
2023/02/26 01:05:19;;;;;;;3.72;1.55;;;;;;;-3.72;100.00;98340.31;4936798;28;20030;-72
2023/02/26 01:08:08;;;;;;;3.70;1.70;;;;;;;-3.81;100.00;98334.81;4946213;28;20450;-74
2023/02/26 01:10:34;;;;;;;3.95;1.83;;;;;;;-3.91;100.00;98327.75;4944195;28;20031;-72
2023/02/26 01:13:00;;;;;;;2.08;1.63;;;;;;;-3.79;100.00;98356.66;4974995;28;20054;-72
2023/02/26 01:15:25;;;;;;;6.00;2.08;;;;;;;-3.76;100.00;98343.19;4943882;28;20046;-72
2023/02/26 01:17:54;;;;;;;5.50;2.00;;;;;;;-3.70;100.00;98341.03;4932267;28;20400;-72
2023/02/26 01:20:29;;;;;;;2.40;1.40;;;;;;;-3.63;100.00;98347.50;4935580;28;20031;-72
2023/02/26 01:23:08;;;;;;;4.68;1.90;;;;;;;-3.61;100.00;98342.94;4943362;28;20069;-72
2023/02/26 01:26:11;;;;;;;3.35;1.73;;;;;;;-3.51;100.00;98354.44;4940999;28;20050;-72
2023/02/26 01:28:36;;;;;;;3.42;1.40;;;;;;;-3.48;100.00;98348.91;4974223;28;20377;-72
2023/02/26 01:31:05;;;;;;;8.63;1.88;;;;;;;-3.62;100.00;98328.84;4942975;29;20114;-72
2023/02/26 01:33:34;;;;;;;;;;;;;;;-3.52;100.00;98347.44;4934986;28;20032;-72
2023/02/26 01:36:08;;;;;;;3.90;1.50;;;;;;;-3.55;100.00;98342.41;4933411;28;20364;-72
2023/02/26 01:38:51;;;;;;;4.20;1.70;;;;;;;-3.59;100.00;98343.63;4933627;28;20082;-72
2023/02/26 01:41:25;;;;;;;3.15;1.50;;;;;;;-3.60;100.00;98345.44;4932438;28;20028;-72
2023/02/26 01:44:14;;;;;;;2.72;1.58;;;;;;;-3.69;100.00;98350.63;4924735;28;20042;-72
2023/02/26 01:46:57;;;;;;;2.85;1.15;;;;;;;-3.80;100.00;98352.38;4953368;28;20475;-72
2023/02/26 01:49:23;;;;;;;6.97;1.73;;;;;;;-3.81;100.00;98358.59;4974193;28;20085;-72
2023/02/26 01:51:56;;;;;;;5.28;2.30;;;;;;;-3.79;100.00;98347.91;4966034;28;20428;-72
2023/02/26 01:54:42;;;;;;;3.25;1.95;;;;;;;-3.68;100.00;98358.44;4935006;28;20480;-72
2023/02/26 01:57:15;;;;;;;4.97;2.00;;;;;;;-3.87;100.00;98342.41;4935008;28;20051;-72
2023/02/26 01:59:43;;;;;;;5.38;2.33;;;;;;;-3.78;100.00;98363.63;4940700;28;20027;-72
2023/02/26 02:02:11;;;;;;;2.28;1.40;;;;;;;-3.98;100.00;98345.91;4952744;28;20412;-72
2023/02/26 02:04:39;;;;;;;10.23;2.67;;;;;;;-3.93;100.00;98349.03;4941086;28;20035;-72
2023/02/26 02:07:05;;;;;;;4.45;2.33;;;;;;;-3.73;100.00;98365.06;4935183;28;20298;-72
2023/02/26 02:09:31;;;;;;;7.32;2.25;;;;;;;-4.05;100.00;98318.28;4963398;28;20098;-72
2023/02/26 02:12:15;;;;;;;6.28;2.30;;;;;;;-3.75;100.00;98373.97;4936941;28;20115;-73
2023/02/26 02:15:02;;;;;;;7.25;1.90;;;;;;;-4.01;100.00;98362.84;4968025;28;20506;-72
2023/02/26 02:18:16;;;;;;;4.43;2.00;;;;;;;-3.82;100.00;98372.78;4943286;28;20031;-72
2023/02/26 02:20:48;;;;;;;5.25;2.22;;;;;;;-3.93;100.00;98367.53;4942002;29;20024;-72
2023/02/26 02:23:37;;;;;;;3.80;1.63;;;;;;;-3.94;100.00;98372.91;4933187;28;20130;-72
2023/02/26 02:26:17;;;;;;;5.55;2.30;;;;;;;-4.03;100.00;98370.06;4939674;28;20023;-72
2023/02/26 02:29:14;;;;;;;4.38;1.52;;;;;;;-3.94;100.00;98372.91;4932410;29;20039;-72
2023/02/26 02:31:47;;;;;;;6.47;2.35;;;;;;;-4.03;100.00;98377.97;4957491;28;20043;-72
2023/02/26 02:34:22;;;;;;;3.55;1.83;;;;;;;-4.15;100.00;98381.59;4933788;28;20035;-72
2023/02/26 02:36:53;;;;;;;5.55;1.80;;;;;;;-4.32;100.00;98385.56;4955705;28;20024;-72
2023/02/26 02:39:28;;;;;;;4.07;2.00;;;;;;;-4.44;100.00;98381.22;4979174;28;20025;-73
2023/02/26 02:42:15;;;;;;;9.68;2.00;;;;;;;-4.47;100.00;98389.41;4929556;29;20110;-73
2023/02/26 02:44:45;;;;;;;4.00;2.10;;;;;;;-4.54;100.00;98396.09;4927506;28;20031;-73
2023/02/26 02:47:12;;;;;;;8.68;1.70;;;;;;;-4.64;100.00;98388.91;4974389;28;20024;-73
2023/02/26 02:50:31;;;;;;;4.75;2.13;;;;;;;-4.45;100.00;98395.41;4961890;28;20064;-73
2023/02/26 02:53:12;;;;;;;4.07;1.90;;;;;;;-4.53;100.00;98376.66;5006175;28;20025;-73
2023/02/26 02:55:45;;;;;;;5.60;2.20;;;;;;;-4.35;100.00;98395.50;4940866;28;20028;-73
2023/02/26 02:58:14;;;;;;;7.47;1.95;;;;;;;-4.36;100.00;98378.00;4937902;28;20404;-72
2023/02/26 03:00:45;;;;;;;5.18;1.90;;;;;;;-4.21;100.00;98397.94;4938204;28;20023;-73
2023/02/26 03:03:42;;;;;;;5.40;2.70;;;;;;;-4.11;100.00;98404.16;4940201;29;20073;-73
2023/02/26 03:06:08;;;;;;;6.32;2.90;;;;;;;-4.18;100.00;98403.78;4934595;28;20546;-72
2023/02/26 03:08:38;;;;;;;6.68;2.65;;;;;;;-4.25;100.00;98394.66;4945494;28;20028;-73
2023/02/26 03:11:03;;;;;;;8.30;3.17;;;;;;;-4.36;100.00;98407.88;4944418;29;20028;-72
2023/02/26 03:13:29;;;;;;;6.95;2.38;;;;;;;-4.27;100.00;98416.88;4932525;29;20472;-73
2023/02/26 03:16:15;;;;;;;6.63;2.60;;;;;;;-4.32;100.00;98416.38;4936068;28;20024;-73
2023/02/26 03:19:11;;;;;;;6.15;2.58;;;;;;;-4.28;100.00;98416.03;4990563;28;20482;-73
2023/02/26 03:21:55;;;;;;;10.07;2.85;;;;;;;-4.37;100.00;98416.78;5034228;28;20029;-73
2023/02/26 03:24:36;;;;;;;5.47;2.50;;;;;;;-4.54;100.00;98418.06;4939022;29;20035;-73
2023/02/26 03:27:12;;;;;;;5.18;2.35;;;;;;;-4.77;100.00;98417.16;4961480;28;20422;-73
2023/02/26 03:30:09;;;;;;;6.00;2.40;;;;;;;-4.77;100.00;98425.06;4989581;28;20044;-73
2023/02/26 03:33:10;;;;;;;4.35;2.20;;;;;;;-4.92;100.00;98435.00;5019435;28;20517;-73
2023/02/26 03:35:59;;;;;;;3.63;2.03;;;;;;;-5.00;100.00;98424.19;4968652;28;20048;-72
2023/02/26 03:38:32;;;;;;;6.95;2.40;;;;;;;-5.09;100.00;98443.34;4933363;28;20388;-72
2023/02/26 03:41:03;;;;;;;5.88;2.03;;;;;;;-5.13;100.00;98442.72;4932049;29;20028;-73
2023/02/26 03:43:34;;;;;;;8.73;2.50;;;;;;;-5.05;100.00;98417.59;4928411;29;20042;-73
2023/02/26 03:46:05;;;;;;;6.72;2.90;;;;;;;-4.77;100.00;98445.34;4929435;28;20114;-73
2023/02/26 03:48:34;;;;;;;6.80;2.35;;;;;;;-4.76;100.00;98453.16;4931926;28;20485;-72
2023/02/26 03:51:06;;;;;;;7.70;2.90;;;;;;;-4.87;100.00;98432.88;4934474;29;20078;-73
2023/02/26 03:53:38;;;;;;;8.57;3.38;;;;;;;-4.78;100.00;98457.72;4933373;28;20028;-73
2023/02/26 03:56:13;;;;;;;8.98;3.63;;;;;;;-4.85;100.00;98460.00;4933992;28;20089;-73
2023/02/26 03:58:39;;;;;;;6.75;2.70;;;;;;;-4.90;100.00;98463.91;4938397;28;20031;-73
2023/02/26 04:01:14;;;;;;;9.15;3.13;;;;;;;-4.91;100.00;98467.50;4931899;29;20031;-72
2023/02/26 04:04:07;;;;;;;8.18;3.10;;;;;;;-4.97;100.00;98470.63;4951176;29;20096;-72
2023/02/26 04:06:33;;;;;;;4.97;2.60;;;;;;;-5.03;100.00;98457.84;4938082;28;20062;-73
2023/02/26 04:09:00;;;;;;;5.57;2.90;;;;;;;-5.07;100.00;98459.88;4965405;28;20564;-73
2023/02/26 04:11:26;;;;;;;3.67;2.17;;;;;;;-5.18;100.00;98476.50;4942300;29;20103;-72
2023/02/26 04:13:52;;;;;;;8.13;2.50;;;;;;;-5.31;100.00;98479.19;4947055;28;20090;-73
2023/02/26 04:16:17;;;;;;;8.07;2.85;;;;;;;-5.49;100.00;98471.78;4929573;28;20132;-73
2023/02/26 04:18:43;;;;;;;7.15;2.13;;;;;;;-5.47;100.00;98486.53;4973560;28;20389;-73
2023/02/26 04:21:14;;;;;;;6.57;2.35;;;;;;;-5.44;100.00;98490.75;4932755;29;20028;-73
2023/02/26 04:23:40;;;;;;;4.47;2.30;;;;;;;-5.55;100.00;98466.00;4929585;29;20042;-73
2023/02/26 04:26:05;;;;;;;8.20;2.05;;;;;;;-5.42;100.00;98483.53;4930195;28;20019;-73
2023/02/26 04:28:30;;;;;;;5.88;2.50;;;;;;;-5.49;100.00;98477.06;4935458;28;20036;-73
2023/02/26 04:30:56;;;;;;;4.40;2.17;;;;;;;-5.50;100.00;98489.41;4960040;28;20028;-73
2023/02/26 04:33:22;;;;;;;6.85;3.08;;;;;;;-5.46;100.00;98493.47;4931799;29;20089;-73
2023/02/26 04:35:47;;;;;;;8.77;3.05;;;;;;;-5.33;100.00;98496.09;4930534;28;20119;-73
2023/02/26 04:38:13;;;;;;;7.53;2.92;;;;;;;-5.61;100.00;98482.22;4928948;28;20028;-73
2023/02/26 04:40:38;;;;;;;6.78;4.05;;;;;;;-5.52;100.00;98502.69;4939252;28;20102;-73
2023/02/26 04:43:05;;;;;;;8.32;4.30;;;;;;;-5.56;100.00;98503.00;4946068;28;20030;-73
2023/02/26 04:45:30;;;;;;;10.70;4.97;;;;;;;-5.76;100.00;98486.81;4996822;28;20103;-73
2023/02/26 04:47:56;;;;;;;8.45;4.22;;;;;;;-5.85;100.00;98482.19;4939140;29;20052;-73
2023/02/26 04:50:21;;;;;;;9.18;4.43;;;;;;;-5.87;100.00;98477.97;4960205;28;20036;-73
2023/02/26 04:52:46;;;;;;;13.05;4.90;;;;;;;-5.92;100.00;98474.81;4935582;28;20031;-73
2023/02/26 04:55:12;;;;;;;10.82;5.40;;;;;;;-5.93;100.00;98483.72;4932749;28;20028;-73
2023/02/26 04:57:37;;;;;;;13.50;6.22;;;;;;;-5.87;100.00;98496.41;4930248;28;20572;-73
2023/02/26 05:00:06;;;;;;;9.45;5.25;;;;;;;-5.99;100.00;98485.00;4937740;28;20053;-72
2023/02/26 05:02:31;;;;;;;12.60;5.65;;;;;;;-5.91;100.00;98481.78;4945044;29;20033;-73
2023/02/26 05:04:56;;;;;;;14.57;6.55;;;;;;;-5.83;100.00;98504.00;4934641;29;20242;-73
2023/02/26 05:07:22;;;;;;;16.88;7.63;;;;;;;-5.75;100.00;98521.91;4942766;28;20041;-73
2023/02/26 05:09:47;;;;;;;12.82;5.68;;;;;;;-5.91;100.00;98513.41;4937002;28;20492;-73
2023/02/26 05:12:12;;;;;;;6.28;3.42;;;;;;;-6.05;100.00;98488.91;4933872;28;20036;-73
2023/02/26 05:14:38;;;;;;;5.85;3.20;;;;;;;-6.09;100.00;98503.22;4938851;29;20032;-73
2023/02/26 05:17:03;;;;;;;11.35;3.33;;;;;;;-5.93;100.00;98531.13;4932523;29;20039;-73
2023/02/26 05:19:28;;;;;;;6.57;3.25;;;;;;;-6.07;100.00;98529.47;4930842;28;20082;-73
2023/02/26 05:21:53;;;;;;;12.63;4.38;;;;;;;-6.13;100.00;98517.56;4926906;28;20032;-73
2023/02/26 05:24:19;;;;;;;8.40;3.45;;;;;;;-6.05;100.00;98533.69;4936110;28;20042;-73
2023/02/26 05:26:45;;;;;;;12.82;4.90;;;;;;;-6.06;100.00;98539.88;4940520;29;20366;-73
2023/02/26 05:29:10;;;;;;;7.80;4.28;;;;;;;-6.14;100.00;98544.81;4937610;29;20504;-73
2023/02/26 05:31:35;;;;;;;10.90;4.93;;;;;;;-6.31;100.00;98513.53;4938953;29;20036;-73
2023/02/26 05:34:01;;;;;;;10.45;4.43;;;;;;;-6.26;100.00;98514.94;4939562;29;20032;-73
2023/02/26 05:36:26;;;;;;;11.70;4.80;;;;;;;-6.12;100.00;98548.19;4931279;28;20082;-73
2023/02/26 05:38:52;;;;;;;15.60;5.25;;;;;;;-6.15;100.00;98545.78;4942936;28;20039;-73
2023/02/26 05:41:18;;;;;;;12.18;4.68;;;;;;;-6.16;100.00;98554.59;4933699;28;20386;-73
2023/02/26 05:43:43;;;;;;;12.98;5.18;;;;;;;-6.27;100.00;98536.06;4914980;29;20082;-72
2023/02/26 05:46:09;;;;;;;6.32;3.45;;;;;;;-6.08;100.00;98560.19;4947697;29;20063;-73
2023/02/26 05:48:34;;;;;;;11.27;4.40;;;;;;;-6.09;100.00;98558.53;4942329;28;20040;-73
2023/02/26 05:51:00;;;;;;;8.88;3.95;;;;;;;-6.13;100.00;98540.41;4933739;28;20028;-73
2023/02/26 05:53:25;;;;;;;9.25;3.80;;;;;;;-6.14;100.00;98536.94;4940665;29;20106;-73
2023/02/26 05:55:52;;;;;;;11.45;3.22;;;;;;;-6.33;100.00;98504.91;4934544;29;20485;-73
2023/02/26 05:58:17;;;;;;;4.80;2.05;;;;;;;-6.07;100.00;98559.25;4940403;28;20055;-73
2023/02/26 06:00:43;;;;;;;7.55;2.40;;;;;;;-6.08;100.00;98546.19;4937429;28;20113;-73
2023/02/26 06:03:08;;;;;;;9.43;4.28;;;;;;;-5.83;100.00;98571.66;4935103;28;20146;-72
2023/02/26 06:05:35;;;;;;;8.82;4.60;;;;;;;-5.91;100.00;98566.09;4968067;28;20030;-73
2023/02/26 06:08:00;;;;;;;7.13;3.88;;;;;;;-6.00;100.00;98562.31;4928600;28;20552;-73
2023/02/26 06:10:25;;;;;;;11.05;4.20;;;;;;;-6.01;100.00;98561.47;4957698;28;20065;-74
2023/02/26 06:12:51;;;;;;;9.95;3.58;;;;;;;-5.79;100.00;98587.16;4959476;28;20033;-72
2023/02/26 06:15:16;;;;;;;10.77;3.53;;;;;;;-5.72;100.00;98585.75;5034497;28;20431;-73
2023/02/26 06:17:42;;;;;;;7.30;3.35;;;;;;;-5.81;100.00;98559.22;5013180;28;20470;-73
2023/02/26 06:20:08;;;;;;;5.43;2.40;;;;;;;-5.43;100.00;98601.34;4942085;28;20099;-74
2023/02/26 06:22:33;;;;;;;9.57;2.92;;;;;;;-5.38;100.00;98598.38;4929815;28;20047;-73
2023/02/26 06:24:59;;;;;;;6.40;2.55;;;;;;;-5.41;100.00;98611.78;4959102;28;20504;-73
2023/02/26 06:27:24;;;;;;;6.30;2.40;;;;;;;-5.63;100.00;98586.94;4935441;28;20062;-73
2023/02/26 06:29:50;;;;;;;5.57;2.47;;;;;;;-5.56;100.00;98585.53;4919504;29;20027;-73
2023/02/26 06:32:15;;;;;;;5.68;2.58;;;;;;;-5.40;100.00;98608.19;4973735;28;20040;-73
2023/02/26 06:34:40;;;;;;;9.40;2.70;;;;;;;-5.35;100.00;98593.72;5035030;28;20025;-73
2023/02/26 06:37:06;;;;;;;6.45;2.60;;;;;;;-5.32;100.00;98590.03;4993720;28;20022;-73
2023/02/26 06:39:31;;;;;;;3.75;2.28;;;;;;;-5.28;100.00;98592.34;4942072;28;20544;-74
2023/02/26 06:41:56;;;;;;;7.15;2.58;;;;;;;-5.13;100.00;98594.88;4937629;29;20040;-73
2023/02/26 06:44:22;;;;;;;5.95;2.75;;;;;;;-5.02;100.00;98602.84;4976045;28;20512;-74
2023/02/26 06:46:47;;;;;;;8.60;2.80;;;;;;;-4.89;100.00;98610.72;4933197;29;20500;-74
2023/02/26 06:49:13;;;;;;;7.65;3.00;;;;;;;-4.70;100.00;98631.31;4933261;29;20115;-74
2023/02/26 06:51:38;;;;;;;6.88;2.63;;;;;;;-4.83;100.00;98604.16;4935056;28;20028;-75
2023/02/26 06:54:03;;;;;;;8.23;2.95;;;;;;;-4.76;100.00;98624.69;4919844;28;20054;-76
2023/02/26 06:56:30;;;;;;;7.28;3.08;;;;;;;-4.55;100.00;98648.69;4947413;22;20204;-64
2023/02/26 06:58:55;;;;;;;6.85;2.80;;;;;;;-4.37;100.00;98640.38;4928002;28;20482;-64
2023/02/26 07:01:20;;;;;;;5.15;2.55;;;;;;;-4.30;100.00;98650.34;4934786;28;20036;-65
2023/02/26 07:03:46;;;;;;;4.68;2.38;;;;;;;-4.23;100.00;98654.22;4927316;28;20065;-65
2023/02/26 07:06:12;;;;;;;10.00;2.65;;;;;;;-4.08;100.00;98662.84;4920607;28;20391;-64
2023/02/26 07:08:38;;;;;;;9.00;2.58;;;;;;;-3.49;100.00;98666.34;4924685;28;20074;-64
2023/02/26 07:11:04;;;;;;;4.30;2.28;;;;;;;-2.88;100.00;98651.81;4948918;28;20406;-66
2023/02/26 07:13:29;;;;;;;7.95;2.25;;;;;;;-2.78;100.00;98648.41;4989361;28;20030;-64
2023/02/26 07:15:55;;;;;;;8.55;2.55;;;;;;;-2.61;100.00;98655.00;4940811;28;20032;-64
2023/02/26 07:18:20;;;;;;;7.30;3.40;;;;;;;-2.36;100.00;98654.69;4928133;28;20089;-66
2023/02/26 07:20:49;;;;;;;10.60;3.85;;;;;;;-2.22;100.00;98658.88;4926904;29;20379;-68
2023/02/26 07:23:14;;;;;;;5.20;1.87;;;;;;;-2.14;100.00;98652.94;4943639;28;20031;-65
2023/02/26 07:25:40;;;;;;;6.25;2.95;;;;;;;-1.98;100.00;98658.63;4930497;28;20023;-65
2023/02/26 07:28:05;;;;;;;4.38;2.25;;;;;;;-1.87;100.00;98663.03;4926234;29;20512;-65
2023/02/26 07:30:30;;;;;;;5.57;1.70;;;;;;;-1.52;100.00;98656.56;4928691;28;20085;-65
2023/02/26 07:32:56;;;;;;;4.30;2.10;;;;;;;-1.08;100.00;98658.06;4931153;28;20077;-65
2023/02/26 07:35:22;;;;;;;3.65;1.98;;;;;;;-0.73;100.00;98657.66;4927351;28;20043;-65
2023/02/26 07:37:47;;;;;;;6.90;2.00;;;;;;;-0.12;100.00;98655.78;4938318;28;20389;-65
2023/02/26 07:40:13;;;;;;;3.45;2.42;;;;;;;1.60;100.00;98650.22;4985152;28;20028;-66
2023/02/26 07:42:39;;;;;;;6.57;1.90;;;;;;;2.12;100.00;98659.28;4929939;29;20038;-65
2023/02/26 07:45:06;;;;;;;5.63;1.70;;;;;;;2.11;100.00;98643.41;4943148;28;20043;-64
2023/02/26 07:47:32;;;;;;;6.50;2.60;;;;;;;1.99;100.00;98656.13;4930295;28;20108;-67
2023/02/26 07:49:57;;;;;;;4.32;1.90;;;;;;;2.21;100.00;98665.53;4950502;28;20654;-67
2023/02/26 07:52:23;;;;;;;4.05;1.38;;;;;;;2.38;100.00;98661.13;4935985;29;20031;-67
2023/02/26 07:54:48;;;;;;;4.03;1.15;;;;;;;2.45;100.00;98656.88;4923257;29;20036;-67
2023/02/26 07:57:14;;;;;;;5.15;1.40;;;;;;;2.49;100.00;98662.72;4927593;28;20036;-66
2023/02/26 07:59:39;;;;;;;5.95;1.15;;;;;;;2.42;100.00;98663.34;4944916;28;20082;-67
2023/02/26 08:02:06;;;;;;;6.30;1.73;;;;;;;2.14;100.00;98664.44;4939714;28;20066;-67
2023/02/26 08:04:32;;;;;;;2.55;1.33;;;;;;;2.28;100.00;98668.41;4935479;28;20103;-66
2023/02/26 08:07:00;;;;;;;7.40;1.48;;;;;;;1.98;100.00;98660.63;4937367;28;20043;-66
2023/02/26 08:09:25;;;;;;;3.30;1.05;;;;;;;2.04;100.00;98675.19;4931714;28;20063;-66
2023/02/26 08:11:51;;;;;;;1.92;0.90;;;;;;;2.66;100.00;98664.53;4930863;28;20036;-66
2023/02/26 08:14:17;;;;;;;4.47;1.00;;;;;;;4.12;100.00;98679.50;4922688;29;20032;-65
2023/02/26 08:16:42;;;;;;;2.92;1.30;;;;;;;5.34;100.00;98672.34;4927806;28;20514;-66
2023/02/26 08:19:07;;;;;;;8.05;1.20;;;;;;;4.70;100.00;98679.53;4929818;28;20031;-66
2023/02/26 08:21:34;;;;;;;4.25;0.93;;;;;;;4.40;100.00;98676.50;4947485;29;20031;-66
2023/02/26 08:23:59;;;;;;;3.55;1.20;;;;;;;3.98;100.00;98682.81;4961004;28;20081;-68
2023/02/26 08:26:26;;;;;;;2.20;0.90;;;;;;;3.28;100.00;98683.94;4928015;28;20020;-68
2023/02/26 08:28:51;;;;;;;5.60;1.63;;;;;;;3.39;100.00;98681.97;4942055;28;20062;-68
2023/02/26 08:31:16;;;;;;;7.18;2.08;;;;;;;3.74;100.00;98684.44;4924232;29;20381;-68
2023/02/26 08:33:42;;;;;;;5.60;3.33;;;;;;;3.94;100.00;98686.84;4977951;28;20048;-68
2023/02/26 08:36:09;;;;;;;3.15;1.08;;;;;;;4.40;100.00;98681.88;4931847;28;20020;-68
2023/02/26 08:38:34;;;;;;;2.40;0.90;;;;;;;3.78;100.00;98674.25;4935580;28;20028;-69
2023/02/26 08:40:59;;;;;;;4.85;1.50;;;;;;;3.18;100.00;98680.53;4945880;29;20070;-69
2023/02/26 08:43:25;;;;;;;5.63;2.00;;;;;;;3.79;100.00;98683.94;4932211;29;20024;-69
2023/02/26 08:45:52;;;;;;;2.75;1.45;;;;;;;3.99;100.00;98697.06;4920023;29;20469;-69
2023/02/26 08:48:18;;;;;;;4.95;1.40;;;;;;;4.56;100.00;98706.00;4926325;28;20028;-69
2023/02/26 08:50:43;;;;;;;5.35;2.72;;;;;;;4.41;100.00;98699.63;4932714;29;20036;-70
2023/02/26 08:53:09;;;;;;;4.30;1.27;;;;;;;4.35;100.00;98701.13;4953397;28;20051;-69
2023/02/26 08:55:34;;;;;;;4.13;1.88;;;;;;;3.83;100.00;98711.25;4933091;28;20042;-69
2023/02/26 08:58:00;;;;;;;6.50;3.90;;;;;;;3.00;100.00;98715.34;4920335;28;20062;-69
2023/02/26 09:00:26;;;;;;;4.70;1.10;;;;;;;2.17;100.00;98712.16;4924765;28;20038;-68
2023/02/26 09:02:54;;;;;;;6.03;5.30;;;;;;;1.89;100.00;98712.25;4944071;28;20356;-68
2023/02/26 09:05:20;;;;;;;3.10;1.20;;;;;;;1.68;100.00;98723.19;4944158;28;20106;-68
2023/02/26 09:07:46;;;;;;;5.50;1.92;;;;;;;1.38;100.00;98724.28;4935796;29;20087;-70
2023/02/26 09:10:13;;;;;;;6.45;3.03;;;;;;;1.30;100.00;98726.84;4950544;28;20103;-70
2023/02/26 09:12:39;;;;;;;3.45;1.63;;;;;;;0.86;100.00;98715.91;4935451;29;20110;-69
2023/02/26 09:15:06;;;;;;;9.52;2.90;;;;;;;0.76;100.00;98731.94;4948183;28;20083;-69
2023/02/26 09:17:32;;;;;;;3.58;1.40;;;;;;;0.64;100.00;98733.88;4932719;28;20034;-69
2023/02/26 09:19:58;;;;;;;3.67;1.42;;;;;;;0.43;100.00;98731.38;4930612;28;20027;-68
2023/02/26 09:22:24;;;;;;;3.75;1.50;;;;;;;0.44;100.00;98748.19;4982921;28;20035;-68
2023/02/26 09:24:49;;;;;;;3.08;1.20;;;;;;;0.14;100.00;98739.38;4928753;28;20394;-68
2023/02/26 09:27:14;;;;;;;3.08;1.30;;;;;;;0.19;100.00;98745.13;4934965;28;20043;-68
2023/02/26 09:29:40;;;;;;;4.15;1.20;;;;;;;0.12;100.00;98751.13;4931399;28;20032;-68
2023/02/26 09:32:07;;;;;;;4.30;1.20;;;;;;;-0.08;100.00;98747.59;4962843;28;20052;-67
2023/02/26 09:34:37;;;;;;;2.60;1.08;;;;;;;-0.13;100.00;98749.81;4957784;28;20044;-67
2023/02/26 09:37:05;;;;;;;2.95;1.20;;;;;;;-0.03;100.00;98754.19;4935309;28;20028;-67
2023/02/26 09:39:31;;;;;;;3.95;1.05;;;;;;;0.37;100.00;98752.41;4935708;28;20066;-67
2023/02/26 09:42:03;;;;;;;4.07;1.10;;;;;;;0.63;100.00;98750.03;4933888;28;20031;-67
2023/02/26 09:44:32;;;;;;;2.75;1.20;;;;;;;0.81;100.00;98766.97;4928702;28;20031;-66
2023/02/26 09:47:04;;;;;;;2.08;1.27;;;;;;;1.03;100.00;98764.97;4930788;28;20036;-67
2023/02/26 09:49:48;;;;;;;4.07;1.42;;;;;;;1.58;100.00;98764.22;4927530;28;20395;-66
2023/02/26 09:52:19;;;;;;;2.10;1.13;;;;;;;1.78;100.00;98756.94;4940542;28;20533;-67
2023/02/26 09:55:08;;;;;;;1.88;0.90;;;;;;;2.52;100.00;98759.41;4930112;28;20032;-67
2023/02/26 09:57:40;;;;;;;2.17;1.15;;;;;;;2.53;100.00;98760.25;4946021;28;20039;-66
2023/02/26 10:00:36;;;;;;;4.32;1.30;;;;;;;2.85;100.00;98765.84;4924336;29;20089;-66
2023/02/26 10:03:17;;;;;;;2.35;1.58;;;;;;;3.48;100.00;98755.88;4970338;28;20059;-66
2023/02/26 10:05:52;;;;;;;4.78;1.67;;;;;;;3.70;100.00;98760.69;4975480;28;20479;-65
2023/02/26 10:08:21;;;;;;;2.65;1.98;;;;;;;3.69;100.00;98769.72;4957998;28;20035;-63
2023/02/26 10:11:29;;;;;;;1.85;1.23;;;;;;;3.89;100.00;98766.78;4928043;28;20059;-64
2023/02/26 10:14:05;;;;;;;3.60;1.75;;;;;;;3.02;100.00;98774.84;4995819;28;20509;-65
2023/02/26 10:16:39;;;;;;;3.00;1.23;;;;;;;2.63;100.00;98777.03;5028900;28;20151;-71
2023/02/26 10:19:19;;;;;;;3.90;1.40;;;;;;;2.37;100.00;98776.94;4976289;28;20050;-71
2023/02/26 10:21:50;;;;;;;1.40;0.73;;;;;;;2.30;100.00;98782.03;4938513;28;20062;-71
2023/02/26 10:24:52;;;;;;;2.67;1.23;;;;;;;2.03;100.00;98779.41;4980572;28;20033;-71
2023/02/26 10:27:27;;;;;;;1.70;0.70;;;;;;;2.07;100.00;98788.78;4932217;29;20047;-71
2023/02/26 10:30:17;;;;;;;1.50;0.73;;;;;;;2.16;100.00;98786.06;4947811;28;20043;-70
2023/02/26 10:33:17;;;;;;;4.70;0.90;;;;;;;2.29;100.00;98792.88;4926505;28;20135;-64
2023/02/26 10:35:52;;;;;;;2.33;0.98;;;;;;;2.75;100.00;98781.16;4931976;28;20547;-65
2023/02/26 10:38:23;;;;;;;1.08;0.75;;;;;;;3.14;100.00;98788.78;4928575;28;20138;-69
2023/02/26 10:41:02;;;;;;;1.90;0.80;;;;;;;3.85;100.00;98776.13;4925734;28;20055;-69
2023/02/26 10:43:34;;;;;;;4.82;0.90;;;;;;;4.33;100.00;98777.28;4923479;28;20458;-68
2023/02/26 10:46:05;;;;;;;1.05;0.95;;;;;;;4.95;100.00;98784.88;4923874;28;20040;-66
2023/02/26 10:48:31;;;;;;;2.33;1.00;;;;;;;4.04;100.00;98781.22;4932080;28;20150;-67
2023/02/26 10:50:59;;;;;;;1.27;0.80;;;;;;;4.76;100.00;98789.56;4941032;28;20035;-65
2023/02/26 10:53:29;;;;;;;1.87;1.13;;;;;;;6.36;90.81;98782.47;4932602;28;20078;-62
2023/02/26 10:56:06;;;;;;;1.52;1.10;;;;;;;5.84;89.07;98800.00;4927015;28;20036;-63
2023/02/26 10:58:31;;;;;;;1.95;1.05;;;;;;;4.84;94.18;98797.59;4929034;28;20032;-63
2023/02/26 11:00:57;;;;;;;2.40;0.80;;;;;;;4.25;100.00;98796.03;4926410;29;20038;-63
2023/02/26 11:03:33;;;;;;;1.10;0.93;;;;;;;3.83;100.00;98800.38;4949816;28;20032;-63
2023/02/26 11:06:02;;;;;;;0.93;0.82;;;;;;;2.83;100.00;98809.75;4931852;28;20040;-63
2023/02/26 11:08:38;;;;;;;1.58;0.88;;;;;;;2.81;100.00;98809.91;4930521;28;20073;-62
2023/02/26 11:11:04;;;;;;;1.23;0.95;;;;;;;3.27;100.00;98797.25;4934387;29;20040;-63
2023/02/26 11:13:35;;;;;;;1.42;0.82;;;;;;;3.72;100.00;98812.22;4932293;28;20105;-63
2023/02/26 11:16:14;;;;;;;1.70;1.05;;;;;;;5.08;100.00;98803.97;4943601;28;20075;-63
2023/02/26 11:18:43;;;;;;;3.40;1.58;;;;;;;5.74;96.37;98799.34;4941377;28;20062;-63
2023/02/26 11:21:17;;;;;;;1.13;0.80;;;;;;;4.69;91.35;98801.97;4944325;28;20127;-63
2023/02/26 11:23:44;;;;;;;1.25;0.63;;;;;;;3.55;100.00;98801.56;4924087;28;20024;-63
2023/02/26 11:26:17;;;;;;;2.63;0.80;;;;;;;3.10;100.00;98810.66;4918366;28;20028;-64
2023/02/26 11:28:48;;;;;;;1.10;0.70;;;;;;;3.04;100.00;98807.59;4922914;29;20058;-62
2023/02/26 11:31:21;;;;;;;5.47;1.45;;;;;;;3.08;100.00;98810.78;4933620;29;20085;-62
2023/02/26 11:33:54;;;;;;;1.80;1.17;;;;;;;3.03;100.00;98810.41;4934108;29;20055;-63
2023/02/26 11:36:23;;;;;;;2.15;1.02;;;;;;;2.97;100.00;98811.03;5001732;28;20022;-62
2023/02/26 11:38:55;;;;;;;3.30;1.35;;;;;;;2.58;100.00;98811.38;4930758;29;20036;-69
2023/02/26 11:41:22;;;;;;;2.10;1.15;;;;;;;3.56;100.00;98811.28;4969959;28;20387;-69